Time;durP1;ratioP1;P1;durP2;ratioP2;P2;SDS_P1;SDS_P2;PMS_P1;PMS_P2;Temp;Humidity;BMP_temperature;BMP_pressure;BME280_temperature;BME280_humidity;BME280_pressure;Samples;Min_cycle;Max_cycle;Signal;HPM_P1;HPM_P2
2022/06/16 00:02:12;;;;;;;2.67;2.57;;;21.30;46.70;;;;;;4986925;28;20271;-59
2022/06/16 00:04:37;;;;;;;2.97;2.77;;;21.40;46.80;;;;;;4984522;28;20235;-59
2022/06/16 00:07:03;;;;;;;2.43;2.23;;;21.30;46.70;;;;;;4986159;28;20450;-59
2022/06/16 00:09:29;;;;;;;2.70;2.60;;;21.40;46.80;;;;;;4985328;28;20323;-59
2022/06/16 00:11:54;;;;;;;2.50;2.40;;;21.30;46.70;;;;;;4984403;28;20259;-59
2022/06/16 00:14:23;;;;;;;2.80;2.60;;;21.40;46.80;;;;;;4983249;28;20580;-58
2022/06/16 00:16:49;;;;;;;2.57;2.37;;;21.30;46.70;;;;;;4982675;28;20325;-59
2022/06/16 00:19:15;;;;;;;2.57;2.47;;;21.30;46.70;;;;;;4982121;28;20509;-59
2022/06/16 00:21:41;;;;;;;2.53;2.37;;;21.30;46.70;;;;;;4982908;28;20467;-59
2022/06/16 00:24:07;;;;;;;2.70;2.60;;;21.30;46.70;;;;;;4981028;28;20312;-59
2022/06/16 00:26:33;;;;;;;2.93;2.80;;;21.30;46.80;;;;;;4979712;28;20678;-59
2022/06/16 00:28:59;;;;;;;2.90;2.70;;;21.30;46.70;;;;;;4984790;28;20510;-59
2022/06/16 00:31:24;;;;;;;2.50;2.40;;;21.30;47.50;;;;;;4981961;28;20222;-59
2022/06/16 00:33:51;;;;;;;2.80;2.60;;;21.30;46.80;;;;;;4979541;28;20897;-59
2022/06/16 00:36:17;;;;;;;2.47;2.37;;;21.30;47.60;;;;;;4981293;28;20245;-59
2022/06/16 00:38:43;;;;;;;2.53;2.43;;;21.30;46.80;;;;;;4983170;28;21021;-59
2022/06/16 00:41:09;;;;;;;3.10;2.90;;;21.30;46.80;;;;;;4985993;28;20256;-59
2022/06/16 00:43:35;;;;;;;2.20;2.10;;;21.30;46.80;;;;;;4982709;28;20212;-59
2022/06/16 00:46:07;;;;;;;2.53;2.43;;;21.30;46.80;;;;;;4983266;28;20441;-59
2022/06/16 00:48:41;;;;;;;2.33;2.23;;;21.40;46.90;;;;;;4980776;28;20308;-59
2022/06/16 00:51:09;;;;;;;2.67;2.47;;;21.40;46.90;;;;;;4982352;28;20462;-59
2022/06/16 00:53:36;;;;;;;2.60;2.50;;;21.30;46.80;;;;;;4982481;28;20440;-61
2022/06/16 00:56:03;;;;;;;2.30;2.10;;;21.30;46.80;;;;;;4983278;28;20462;-58
2022/06/16 00:58:30;;;;;;;2.27;2.17;;;21.30;46.80;;;;;;4977670;28;20456;-60
2022/06/16 01:00:55;;;;;;;2.30;2.20;;;21.30;46.80;;;;;;4981119;28;20470;-59
2022/06/16 01:06:26;;;;;;;2.40;2.30;;;21.30;46.80;;;;;;4986104;28;20235;-59
2022/06/16 01:09:06;;;;;;;2.37;2.27;;;21.30;46.80;;;;;;4987790;28;20447;-59
2022/06/16 01:15:07;;;;;;;2.67;2.57;;;21.30;46.80;;;;;;4986910;28;20482;-59
2022/06/16 01:17:40;;;;;;;2.27;2.17;;;21.30;46.90;;;;;;4983079;28;20466;-59
2022/06/16 01:20:28;;;;;;;2.20;2.10;;;21.30;46.90;;;;;;4986277;28;20583;-60
2022/06/16 01:23:38;;;;;;;2.40;2.30;;;21.30;46.80;;;;;;4983160;28;20470;-59
2022/06/16 01:26:15;;;;;;;2.17;2.07;;;21.30;46.80;;;;;;4994262;28;20517;-59
2022/06/16 01:28:47;;;;;;;2.27;2.17;;;21.30;46.90;;;;;;4980645;28;21023;-60
2022/06/16 01:31:17;;;;;;;2.60;2.40;;;21.30;46.90;;;;;;4983024;28;20473;-60
2022/06/16 01:33:56;;;;;;;2.50;2.40;;;21.30;46.90;;;;;;4976431;28;20847;-59
2022/06/16 01:36:34;;;;;;;2.30;2.20;;;21.30;46.90;;;;;;4982847;28;20440;-60
2022/06/16 01:39:13;;;;;;;2.57;2.47;;;21.30;46.90;;;;;;4980372;28;20470;-59
2022/06/16 01:42:02;;;;;;;2.80;2.60;;;21.30;46.90;;;;;;4979803;28;20457;-59
2022/06/16 01:44:35;;;;;;;3.00;2.80;;;21.30;46.90;;;;;;4979913;28;20460;-59
2022/06/16 01:47:08;;;;;;;2.37;2.27;;;21.30;46.90;;;;;;4978999;28;20550;-59
2022/06/16 01:49:38;;;;;;;2.70;2.50;;;21.30;46.90;;;;;;4982243;28;20420;-57
2022/06/16 01:52:07;;;;;;;2.40;2.30;;;21.30;46.90;;;;;;4982392;28;20457;-59
2022/06/16 01:54:46;;;;;;;2.50;2.40;;;21.30;46.90;;;;;;4977745;28;20454;-59
2022/06/16 01:57:12;;;;;;;2.33;2.23;;;21.30;46.90;;;;;;4980266;28;20833;-59
2022/06/16 02:00:18;;;;;;;2.30;2.20;;;21.30;46.90;;;;;;4978281;28;20447;-59
2022/06/16 02:02:45;;;;;;;3.13;2.20;;;21.30;46.90;;;;;;4921596;29;21113;-59
2022/06/16 02:05:35;;;;;;;2.53;2.43;;;21.30;46.90;;;;;;4920882;29;20502;-59
2022/06/16 02:08:17;;;;;;;3.00;2.80;;;21.30;46.90;;;;;;4956706;28;20471;-59
2022/06/16 02:10:47;;;;;;;2.10;2.00;;;21.30;46.90;;;;;;4981818;28;20866;-60
2022/06/16 02:13:18;;;;;;;2.60;2.50;;;21.30;46.90;;;;;;4981062;28;20425;-59
2022/06/16 02:15:49;;;;;;;2.47;2.37;;;21.30;46.90;;;;;;4980673;28;20421;-60
2022/06/16 02:18:20;;;;;;;2.13;2.03;;;21.30;46.90;;;;;;4976773;28;20473;-59
2022/06/16 02:20:58;;;;;;;2.43;2.23;;;21.30;46.90;;;;;;4986870;28;20891;-59
2022/06/16 02:23:24;;;;;;;2.30;2.20;;;21.30;46.90;;;;;;4974175;28;20459;-59
2022/06/16 02:25:54;;;;;;;3.20;3.00;;;21.30;46.90;;;;;;4982151;28;20462;-59
2022/06/16 02:28:20;;;;;;;2.20;2.10;;;21.30;46.90;;;;;;4986178;28;20302;-59
2022/06/16 02:31:27;;;;;;;2.10;2.00;;;21.30;46.90;;;;;;4982196;28;20498;-59
2022/06/16 02:34:19;;;;;;;2.40;2.30;;;21.30;46.90;;;;;;4984163;28;20465;-59
2022/06/16 02:36:50;;;;;;;2.47;2.27;;;21.30;46.90;;;;;;4973337;28;20462;-59
2022/06/16 02:39:54;;;;;;;2.20;2.10;;;21.30;47.00;;;;;;4982980;28;20485;-59
2022/06/16 02:42:29;;;;;;;2.20;2.10;;;21.30;46.90;;;;;;4983569;28;20533;-59
2022/06/16 02:44:54;;;;;;;2.50;2.40;;;21.30;46.90;;;;;;4979759;28;20472;-59
2022/06/16 02:47:57;;;;;;;2.50;2.40;;;21.30;47.00;;;;;;4978104;28;20941;-59
2022/06/16 02:50:45;;;;;;;2.67;2.53;;;21.30;46.90;;;;;;4979741;28;20220;-59
2022/06/16 02:56:29;;;;;;;2.23;2.13;;;21.30;47.00;;;;;;4981197;28;20471;-63
2022/06/16 02:59:01;;;;;;;2.63;2.53;;;21.30;47.00;;;;;;4980972;28;20463;-59
2022/06/16 03:01:27;;;;;;;2.83;2.63;;;21.30;46.90;;;;;;4982578;28;20508;-59
2022/06/16 03:04:13;;;;;;;2.43;2.33;;;21.30;46.90;;;;;;4987278;28;20963;-59
2022/06/16 03:06:38;;;;;;;2.40;2.30;;;21.30;46.90;;;;;;4997559;28;20451;-59
2022/06/16 03:09:05;;;;;;;2.20;2.10;;;21.30;47.00;;;;;;4998640;28;20490;-59
2022/06/16 03:11:35;;;;;;;2.30;2.20;;;21.30;47.00;;;;;;4998929;28;20224;-59
2022/06/16 03:14:02;;;;;;;2.40;2.30;;;21.30;46.90;;;;;;4979791;28;20470;-59
2022/06/16 03:16:28;;;;;;;2.50;2.40;;;21.30;46.90;;;;;;4985234;28;20471;-60
2022/06/16 03:18:54;;;;;;;2.23;2.13;;;21.30;47.00;;;;;;4984287;28;20604;-59
2022/06/16 03:21:20;;;;;;;2.30;2.20;;;21.30;47.00;;;;;;4979933;28;20454;-59
2022/06/16 03:23:46;;;;;;;2.30;2.20;;;21.30;46.90;;;;;;4983215;28;20459;-60
2022/06/16 03:26:12;;;;;;;2.60;2.50;;;21.30;47.00;;;;;;4983577;28;20260;-59
2022/06/16 03:28:40;;;;;;;2.30;2.20;;;21.30;47.00;;;;;;4984265;28;20221;-61
2022/06/16 03:31:05;;;;;;;2.40;2.30;;;21.30;46.90;;;;;;4983215;28;20451;-59
2022/06/16 03:33:31;;;;;;;2.60;2.40;;;21.30;46.90;;;;;;4981906;28;20436;-59
2022/06/16 03:35:57;;;;;;;2.30;2.20;;;21.30;47.00;;;;;;4985511;28;20247;-59
2022/06/16 03:38:34;;;;;;;2.23;2.13;;;21.30;47.00;;;;;;4979539;28;20304;-59
2022/06/16 03:40:59;;;;;;;2.23;2.03;;;21.30;46.90;;;;;;4981435;28;20453;-59
2022/06/16 03:43:25;;;;;;;2.20;2.10;;;21.30;46.90;;;;;;4981601;28;20963;-59
2022/06/16 03:45:50;;;;;;;2.40;2.30;;;21.30;47.00;;;;;;4987256;28;20220;-59
2022/06/16 03:48:16;;;;;;;2.60;2.20;;;21.30;47.00;;;;;;4988474;28;20635;-59
2022/06/16 03:50:42;;;;;;;2.40;2.30;;;21.30;46.90;;;;;;4986993;28;20227;-59
2022/06/16 03:53:08;;;;;;;2.30;2.20;;;21.30;46.90;;;;;;4986024;28;20686;-59
2022/06/16 03:55:34;;;;;;;2.17;2.07;;;21.30;46.90;;;;;;4990123;28;20229;-59
2022/06/16 03:58:00;;;;;;;2.70;2.50;;;21.30;46.90;;;;;;4984980;28;20875;-59
2022/06/16 04:00:26;;;;;;;2.27;2.17;;;21.30;46.90;;;;;;4984542;28;20320;-59
2022/06/16 04:05:38;;;;;;;2.33;2.23;;;21.30;46.90;;;;;;4986281;28;20733;-59
2022/06/16 04:08:04;;;;;;;1.90;1.80;;;21.30;46.90;;;;;;4979676;28;20530;-59
2022/06/16 04:10:29;;;;;;;2.40;2.30;;;21.30;46.90;;;;;;4984255;28;20525;-59
2022/06/16 04:12:55;;;;;;;2.80;2.60;;;21.30;46.90;;;;;;4983788;28;20845;-59
2022/06/16 04:15:21;;;;;;;2.87;2.70;;;21.30;46.90;;;;;;4986191;28;20229;-59
2022/06/16 04:17:46;;;;;;;2.10;1.90;;;21.30;47.00;;;;;;4982549;28;20236;-59
2022/06/16 04:20:12;;;;;;;2.20;2.10;;;21.30;46.90;;;;;;4980720;28;20225;-59
2022/06/16 04:22:38;;;;;;;2.50;2.40;;;21.30;46.90;;;;;;4985388;28;20694;-58
2022/06/16 04:25:07;;;;;;;2.30;2.20;;;21.30;46.90;;;;;;4985340;28;20436;-59
2022/06/16 04:27:32;;;;;;;2.77;2.57;;;21.30;46.90;;;;;;4981412;28;20240;-59
2022/06/16 04:29:58;;;;;;;2.27;2.17;;;21.30;46.90;;;;;;4982918;28;20453;-59
2022/06/16 04:32:23;;;;;;;2.20;2.10;;;21.30;46.90;;;;;;4983552;28;20220;-59
2022/06/16 04:34:49;;;;;;;2.10;2.00;;;21.30;46.90;;;;;;4981462;28;20225;-59
2022/06/16 04:37:15;;;;;;;2.30;2.20;;;21.30;46.90;;;;;;4983354;28;20245;-59
2022/06/16 04:39:40;;;;;;;2.30;2.20;;;21.30;46.90;;;;;;4980349;28;20228;-58
2022/06/16 04:42:06;;;;;;;2.83;2.60;;;21.30;46.90;;;;;;4981180;28;20224;-63
2022/06/16 04:44:33;;;;;;;2.20;2.10;;;21.30;46.90;;;;;;4996554;28;20225;-59
2022/06/16 04:47:01;;;;;;;2.60;2.50;;;21.30;46.80;;;;;;4981778;28;20652;-59
2022/06/16 04:49:28;;;;;;;2.20;2.10;;;21.30;46.90;;;;;;4982070;28;20470;-59
2022/06/16 04:51:54;;;;;;;2.50;2.40;;;21.30;46.80;;;;;;4994156;28;20513;-59
2022/06/16 04:54:20;;;;;;;2.30;2.20;;;21.30;46.80;;;;;;4976580;28;20865;-58
2022/06/16 04:56:45;;;;;;;2.30;2.20;;;21.30;46.80;;;;;;4986790;28;20237;-59
2022/06/16 04:59:13;;;;;;;2.90;2.67;;;21.30;46.70;;;;;;4978701;28;20773;-59
2022/06/16 05:01:39;;;;;;;2.50;2.40;;;21.30;46.80;;;;;;4982222;28;20229;-59
2022/06/16 05:04:05;;;;;;;4.30;2.10;;;21.30;46.80;;;;;;4979032;28;20878;-59
2022/06/16 05:06:31;;;;;;;2.37;2.27;;;21.40;46.80;;;;;;4985178;28;21064;-59
2022/06/16 05:08:56;;;;;;;2.27;2.07;;;21.40;46.80;;;;;;4980718;28;20303;-59
2022/06/16 05:11:22;;;;;;;2.03;1.93;;;21.40;46.80;;;;;;4997069;28;20216;-59
2022/06/16 05:13:47;;;;;;;2.60;2.50;;;21.40;47.60;;;;;;4981218;28;20710;-58
2022/06/16 05:16:13;;;;;;;2.00;1.90;;;21.40;46.80;;;;;;4987869;28;20279;-60
2022/06/16 05:18:39;;;;;;;2.10;2.00;;;21.40;46.80;;;;;;4981912;28;21084;-59
2022/06/16 05:21:07;;;;;;;2.27;2.17;;;21.40;46.80;;;;;;4986874;28;20221;-59
2022/06/16 05:23:33;;;;;;;3.27;3.07;;;21.40;46.80;;;;;;4984589;28;20225;-59
2022/06/16 05:25:58;;;;;;;2.20;2.10;;;21.40;46.80;;;;;;4980343;28;20470;-59
2022/06/16 05:28:24;;;;;;;2.30;2.20;;;21.40;46.80;;;;;;4975599;28;20221;-59
2022/06/16 05:30:49;;;;;;;2.27;2.17;;;21.40;46.80;;;;;;4983996;28;20581;-59
2022/06/16 05:33:15;;;;;;;2.30;2.13;;;21.40;46.80;;;;;;4980225;28;20220;-59
2022/06/16 05:35:40;;;;;;;2.30;2.10;;;21.40;46.80;;;;;;4982213;28;20232;-59
2022/06/16 05:38:06;;;;;;;2.00;1.90;;;21.40;46.80;;;;;;4984402;28;20344;-59
2022/06/16 05:40:32;;;;;;;2.50;2.40;;;21.40;46.70;;;;;;4981386;28;20220;-58
2022/06/16 05:42:58;;;;;;;2.40;2.30;;;21.40;46.80;;;;;;4981924;28;20221;-59
2022/06/16 05:45:23;;;;;;;2.40;2.30;;;21.40;46.80;;;;;;4980679;28;20582;-58
2022/06/16 05:47:49;;;;;;;2.27;2.17;;;21.40;46.80;;;;;;4979875;28;20311;-59
2022/06/16 05:50:16;;;;;;;2.60;2.40;;;21.40;46.80;;;;;;4982504;28;20740;-59
2022/06/16 05:52:43;;;;;;;2.50;2.30;;;21.40;46.70;;;;;;4981994;28;20236;-59
2022/06/16 05:55:12;;;;;;;2.10;2.00;;;21.40;46.70;;;;;;4983768;28;20448;-58
2022/06/16 05:57:37;;;;;;;1.93;1.83;;;21.40;46.70;;;;;;4979267;28;20454;-59
2022/06/16 06:00:05;;;;;;;2.40;2.30;;;21.40;46.80;;;;;;4978301;28;20455;-59
2022/06/16 06:02:30;;;;;;;2.13;2.03;;;21.40;46.80;;;;;;4982116;28;20221;-59
2022/06/16 06:04:56;;;;;;;2.17;2.07;;;21.40;46.70;;;;;;4981197;28;21048;-59
2022/06/16 06:07:21;;;;;;;2.17;2.07;;;21.40;46.70;;;;;;4977599;28;20221;-59
2022/06/16 06:18:15;;;;;;;2.57;2.40;;;21.40;46.50;;;;;;4982402;28;20464;-59
2022/06/16 06:20:41;;;;;;;2.57;2.37;;;21.40;46.60;;;;;;4983056;28;20542;-58
2022/06/16 06:23:07;;;;;;;2.43;2.33;;;21.40;46.60;;;;;;4983472;28;20526;-59
2022/06/16 06:25:33;;;;;;;2.50;2.30;;;21.40;46.50;;;;;;4981867;28;21151;-59
2022/06/16 06:27:58;;;;;;;2.03;1.93;;;21.50;47.30;;;;;;4982328;28;20220;-58
2022/06/16 06:30:28;;;;;;;2.40;2.30;;;21.50;46.50;;;;;;4979978;28;20229;-58
2022/06/16 06:32:55;;;;;;;2.67;2.47;;;21.50;46.50;;;;;;4983603;28;20306;-58
2022/06/16 06:35:21;;;;;;;2.07;1.97;;;21.50;46.50;;;;;;4981216;28;21220;-58
2022/06/16 06:37:48;;;;;;;2.13;2.03;;;21.50;46.40;;;;;;4982412;28;21036;-59
2022/06/16 06:40:21;;;;;;;2.03;1.83;;;21.50;46.50;;;;;;4977884;28;20478;-58
2022/06/16 06:42:47;;;;;;;2.40;2.20;;;21.50;46.50;;;;;;4982690;28;20462;-58
2022/06/16 06:45:13;;;;;;;2.20;2.10;;;21.50;46.50;;;;;;4983605;28;21023;-59
2022/06/16 06:47:39;;;;;;;2.20;2.10;;;21.50;46.40;;;;;;4979297;28;20455;-58
2022/06/16 06:50:05;;;;;;;1.93;1.83;;;21.50;46.40;;;;;;4984280;28;20263;-58
2022/06/16 06:52:31;;;;;;;2.30;2.20;;;21.50;46.50;;;;;;4981061;28;20228;-59
2022/06/16 06:54:56;;;;;;;2.00;1.90;;;21.50;46.50;;;;;;4981226;28;20458;-58
2022/06/16 06:57:25;;;;;;;2.17;1.97;;;21.50;46.50;;;;;;4983698;28;20251;-58
2022/06/16 06:59:52;;;;;;;1.77;1.67;;;21.50;46.40;;;;;;4986105;28;20646;-58
2022/06/16 07:02:18;;;;;;;2.17;2.07;;;21.50;46.40;;;;;;4979107;28;20463;-58
2022/06/16 07:04:44;;;;;;;2.30;2.10;;;21.50;46.40;;;;;;4981280;28;20450;-58
2022/06/16 07:07:12;;;;;;;2.40;2.20;;;21.50;46.30;;;;;;4978994;28;20450;-59
2022/06/16 07:09:37;;;;;;;2.30;2.10;;;21.50;46.40;;;;;;4981402;28;20220;-58
2022/06/16 07:12:04;;;;;;;2.20;2.10;;;21.50;46.30;;;;;;4996894;28;20452;-59
2022/06/16 07:14:30;;;;;;;2.20;2.07;;;21.50;46.30;;;;;;4979596;28;20228;-58
2022/06/16 07:16:56;;;;;;;2.10;2.00;;;21.50;46.40;;;;;;4981141;28;20478;-58
2022/06/16 07:19:22;;;;;;;4.23;2.30;;;21.50;46.30;;;;;;4979381;28;20469;-58
2022/06/16 07:21:48;;;;;;;2.20;2.10;;;21.50;46.30;;;;;;4978419;28;20236;-58
2022/06/16 07:24:14;;;;;;;2.10;2.00;;;21.50;46.30;;;;;;4979451;28;20570;-58
2022/06/16 07:26:40;;;;;;;2.07;1.97;;;21.50;46.40;;;;;;4979581;28;20283;-58
2022/06/16 07:29:06;;;;;;;2.00;1.90;;;21.50;46.40;;;;;;4994749;28;20474;-58
2022/06/16 07:31:31;;;;;;;2.50;2.30;;;21.50;46.40;;;;;;4981349;28;20574;-58
2022/06/16 07:33:57;;;;;;;2.13;2.03;;;21.50;46.30;;;;;;4979250;28;20589;-58
2022/06/16 07:36:23;;;;;;;2.10;2.00;;;21.50;46.40;;;;;;4976558;28;20244;-58
2022/06/16 07:38:49;;;;;;;2.50;2.40;;;21.50;46.40;;;;;;4980154;28;20592;-58
2022/06/16 07:44:10;;;;;;;2.43;2.20;;;21.50;46.40;;;;;;4981597;28;20473;-59
2022/06/16 07:46:37;;;;;;;2.60;2.50;;;21.50;46.40;;;;;;4986556;28;20466;-58
2022/06/16 07:49:07;;;;;;;2.40;2.20;;;21.50;46.40;;;;;;4983902;28;20446;-58
2022/06/16 07:51:33;;;;;;;2.40;2.30;;;21.50;46.40;;;;;;4982000;28;20455;-60
2022/06/16 07:53:59;;;;;;;2.23;2.13;;;21.50;46.40;;;;;;4981687;28;20464;-60
2022/06/16 07:56:25;;;;;;;2.37;2.27;;;21.50;46.40;;;;;;4987350;28;20470;-59
2022/06/16 07:58:50;;;;;;;2.63;2.53;;;21.50;46.40;;;;;;4984890;28;20235;-59
2022/06/16 08:01:16;;;;;;;2.37;2.27;;;21.50;46.40;;;;;;4985470;28;20665;-59
2022/06/16 08:03:42;;;;;;;3.20;3.00;;;21.50;46.40;;;;;;4987051;28;20964;-58
2022/06/16 08:06:14;;;;;;;2.50;2.30;;;21.50;46.40;;;;;;4982889;28;20217;-59
2022/06/16 08:08:40;;;;;;;2.90;2.70;;;21.50;46.40;;;;;;4981945;28;20459;-59
2022/06/16 08:12:03;;;;;;;6.83;3.13;;;21.50;46.40;;;;;;4982369;28;20477;-59
2022/06/16 08:13:52;;;;;;;2.70;2.60;;;21.50;46.30;;;;;;4981722;28;20425;-59
2022/06/16 08:16:18;;;;;;;2.43;2.23;;;21.50;46.30;;;;;;4982451;28;20813;-59
2022/06/16 08:18:43;;;;;;;2.93;2.73;;;21.50;46.20;;;;;;4981963;28;20567;-59
2022/06/16 08:21:09;;;;;;;3.00;2.80;;;21.50;46.20;;;;;;4984576;28;20483;-59
2022/06/16 08:23:34;;;;;;;2.87;2.67;;;21.50;46.10;;;;;;4983926;28;20229;-58
2022/06/16 08:26:00;;;;;;;2.80;2.60;;;21.50;46.20;;;;;;4983159;28;20316;-58
2022/06/16 08:28:26;;;;;;;2.90;2.53;;;21.50;46.20;;;;;;4978263;28;20629;-59
2022/06/16 08:30:51;;;;;;;2.23;2.13;;;21.50;46.20;;;;;;4982732;28;20225;-59
2022/06/16 08:33:18;;;;;;;2.60;2.50;;;21.50;46.30;;;;;;4984752;28;20217;-59
2022/06/16 08:35:46;;;;;;;2.60;2.50;;;21.50;46.30;;;;;;4997128;28;20225;-59
2022/06/16 08:38:13;;;;;;;2.30;2.20;;;21.50;46.30;;;;;;4984494;28;20463;-59
2022/06/16 08:40:44;;;;;;;2.80;2.70;;;21.50;46.30;;;;;;4981895;28;20484;-60
2022/06/16 08:43:28;;;;;;;3.00;2.80;;;21.50;46.20;;;;;;4983356;28;20470;-59
2022/06/16 08:45:57;;;;;;;3.13;2.93;;;21.50;46.00;;;;;;4981510;28;20455;-59
2022/06/16 08:48:34;;;;;;;2.77;2.57;;;21.50;46.20;;;;;;4984576;28;20487;-59
2022/06/16 08:51:24;;;;;;;4.20;2.70;;;21.50;46.10;;;;;;4980862;28;20454;-59
2022/06/16 08:53:55;;;;;;;2.80;2.70;;;21.50;46.00;;;;;;4983302;28;20530;-59
2022/06/16 08:56:34;;;;;;;3.00;2.80;;;21.50;46.10;;;;;;4979860;28;20441;-58
2022/06/16 08:59:12;;;;;;;2.90;2.80;;;21.50;46.10;;;;;;4979977;28;20947;-58
2022/06/16 09:02:03;;;;;;;2.83;2.63;;;21.50;46.80;;;;;;4983891;28;20517;-64
2022/06/16 09:04:39;;;;;;;3.03;2.83;;;21.50;46.10;;;;;;4981777;28;20454;-62
2022/06/16 09:07:37;;;;;;;2.73;2.57;;;21.50;46.10;;;;;;4984364;28;20542;-60
2022/06/16 09:10:24;;;;;;;2.90;2.70;;;21.50;46.10;;;;;;4964765;28;20463;-61
2022/06/16 09:13:24;;;;;;;2.80;2.60;;;21.40;46.00;;;;;;4981056;28;20465;-62
2022/06/16 09:16:32;;;;;;;2.87;2.70;;;21.40;46.00;;;;;;4981890;28;20433;-62
2022/06/16 09:19:20;;;;;;;3.00;2.70;;;21.40;46.10;;;;;;4960123;28;20463;-62
2022/06/16 09:22:08;;;;;;;2.90;2.70;;;21.40;46.00;;;;;;4982427;28;20469;-60
2022/06/16 09:25:06;;;;;;;2.77;2.57;;;21.40;46.00;;;;;;4985475;28;20448;-61
2022/06/16 09:27:46;;;;;;;3.20;2.57;;;21.50;46.00;;;;;;4983121;28;21019;-61
2022/06/16 09:30:18;;;;;;;2.90;2.60;;;21.40;45.90;;;;;;4979759;28;20507;-61
2022/06/16 09:32:51;;;;;;;3.90;2.43;;;21.50;46.00;;;;;;4982201;28;20437;-61
2022/06/16 09:35:28;;;;;;;2.77;2.57;;;21.50;46.00;;;;;;4981315;28;20977;-61
2022/06/16 09:38:02;;;;;;;2.33;2.23;;;21.50;46.00;;;;;;4980610;28;20454;-61
2022/06/16 09:40:33;;;;;;;2.50;2.30;;;21.50;46.00;;;;;;4982414;28;20553;-61
2022/06/16 09:43:20;;;;;;;2.30;2.20;;;21.50;46.00;;;;;;4983303;28;20579;-60
2022/06/16 09:45:53;;;;;;;8.80;3.10;;;21.50;46.00;;;;;;4980110;28;20477;-61
2022/06/16 09:48:32;;;;;;;2.60;2.47;;;21.50;46.00;;;;;;4977946;28;20501;-60
2022/06/16 09:51:01;;;;;;;2.57;2.47;;;21.50;46.00;;;;;;4983100;28;20557;-60
2022/06/16 09:53:30;;;;;;;2.90;2.70;;;21.50;46.00;;;;;;4978396;28;20835;-60
2022/06/16 09:56:05;;;;;;;2.43;2.33;;;21.50;46.00;;;;;;4979946;28;20462;-60
2022/06/16 09:58:37;;;;;;;2.27;2.17;;;21.50;46.00;;;;;;4980700;28;20508;-61
2022/06/16 10:01:11;;;;;;;3.37;3.17;;;21.50;46.00;;;;;;4979631;28;20442;-60
2022/06/16 10:04:03;;;;;;;3.63;2.20;;;21.50;46.00;;;;;;4982223;28;20450;-60
2022/06/16 10:06:48;;;;;;;2.50;2.40;;;21.50;46.00;;;;;;4981196;28;20475;-60
2022/06/16 10:09:23;;;;;;;2.53;2.43;;;21.50;46.00;;;;;;4977833;28;20473;-60
2022/06/16 10:11:57;;;;;;;3.10;2.70;;;21.50;46.10;;;;;;4981560;28;20880;-60
2022/06/16 10:14:54;;;;;;;2.80;2.60;;;21.40;46.00;;;;;;4977327;28;20458;-60
2022/06/16 10:17:22;;;;;;;3.17;2.90;;;21.40;46.10;;;;;;4979717;28;20437;-60
2022/06/16 10:19:48;;;;;;;3.20;3.00;;;21.40;46.20;;;;;;4978136;28;20446;-60
2022/06/16 10:22:16;;;;;;;3.57;3.27;;;21.40;47.00;;;;;;4981392;28;20451;-60
2022/06/16 10:24:58;;;;;;;3.60;3.40;;;21.50;46.40;;;;;;4978940;28;20804;-61
2022/06/16 10:27:31;;;;;;;3.07;2.87;;;21.40;46.30;;;;;;4979312;28;20470;-60
2022/06/16 10:29:58;;;;;;;2.90;2.70;;;21.40;46.30;;;;;;4983306;28;20479;-61
2022/06/16 10:32:42;;;;;;;2.87;2.77;;;21.40;46.30;;;;;;4978353;28;20836;-60
2022/06/16 10:35:17;;;;;;;2.50;2.40;;;21.40;46.30;;;;;;4979659;28;20463;-60
2022/06/16 10:37:44;;;;;;;2.73;2.63;;;21.40;46.50;;;;;;4981500;28;20477;-60
2022/06/16 10:40:15;;;;;;;3.60;2.90;;;21.40;46.50;;;;;;4976105;28;20455;-60
2022/06/16 10:42:48;;;;;;;3.50;3.23;;;21.40;46.50;;;;;;4982561;28;20501;-60
2022/06/16 10:45:26;;;;;;;3.23;3.03;;;21.40;46.50;;;;;;4983762;28;20458;-60
2022/06/16 10:47:53;;;;;;;4.00;3.80;;;21.40;46.40;;;;;;4983604;28;20447;-60
2022/06/16 10:50:23;;;;;;;3.50;3.30;;;21.40;46.50;;;;;;4981823;28;20465;-60
2022/06/16 10:53:00;;;;;;;3.23;3.03;;;21.40;46.50;;;;;;4980335;28;20526;-60
2022/06/16 10:55:29;;;;;;;3.33;3.13;;;21.40;46.50;;;;;;4979139;28;20454;-60
2022/06/16 10:58:00;;;;;;;3.50;3.30;;;21.40;46.50;;;;;;4981177;28;20466;-60
2022/06/16 11:00:27;;;;;;;3.57;3.37;;;21.40;46.60;;;;;;4980847;28;20450;-60
2022/06/16 11:03:16;;;;;;;3.40;3.10;;;21.40;46.50;;;;;;4983679;28;20480;-61
2022/06/16 11:05:53;;;;;;;2.97;2.87;;;21.40;46.50;;;;;;4981867;28;20539;-60
2022/06/16 11:08:20;;;;;;;3.43;3.23;;;21.40;46.60;;;;;;4979300;28;20474;-60
2022/06/16 11:10:58;;;;;;;3.30;3.10;;;21.40;46.50;;;;;;4982841;28;20474;-60
2022/06/16 11:13:37;;;;;;;3.20;3.00;;;21.40;46.50;;;;;;4979494;28;20474;-60
2022/06/16 11:16:15;;;;;;;3.00;2.90;;;21.40;46.60;;;;;;4981954;28;20537;-60
2022/06/16 11:18:44;;;;;;;3.57;3.37;;;21.40;46.60;;;;;;4978747;28;20462;-60
2022/06/16 11:21:21;;;;;;;3.50;3.30;;;21.40;46.70;;;;;;4985586;28;20815;-60
2022/06/16 11:23:53;;;;;;;3.80;3.60;;;21.40;46.60;;;;;;4984556;28;20450;-60
2022/06/16 11:26:28;;;;;;;4.03;3.83;;;21.40;46.60;;;;;;4984302;28;20497;-61
2022/06/16 11:29:03;;;;;;;3.97;3.77;;;21.40;46.70;;;;;;4981475;28;20488;-61
2022/06/16 11:31:41;;;;;;;3.53;3.33;;;21.40;46.70;;;;;;4986656;28;20445;-60
2022/06/16 11:34:23;;;;;;;4.00;3.80;;;21.40;46.60;;;;;;4983955;28;20454;-61
2022/06/16 11:37:19;;;;;;;3.63;3.43;;;21.40;46.70;;;;;;4982041;28;20456;-61
2022/06/16 11:40:12;;;;;;;3.33;3.13;;;21.40;46.70;;;;;;4983664;28;20461;-61
2022/06/16 11:43:12;;;;;;;3.73;3.50;;;21.40;46.70;;;;;;4982411;28;21011;-61
2022/06/16 11:45:56;;;;;;;4.13;3.93;;;21.40;46.60;;;;;;4984667;28;21061;-60
2022/06/16 11:48:34;;;;;;;2.90;2.73;;;21.40;46.70;;;;;;4985117;28;20436;-60
2022/06/16 11:51:04;;;;;;;3.60;3.40;;;21.40;46.70;;;;;;4985928;28;20901;-60
2022/06/16 11:53:48;;;;;;;4.10;3.90;;;21.40;46.70;;;;;;4981669;28;20732;-60
2022/06/16 11:56:32;;;;;;;3.70;3.50;;;21.40;46.70;;;;;;4988809;28;20978;-60
2022/06/16 11:59:07;;;;;;;3.77;3.57;;;21.40;46.70;;;;;;4979930;28;20483;-59
2022/06/16 12:01:40;;;;;;;3.90;3.67;;;21.40;46.70;;;;;;4984519;28;20459;-59
2022/06/16 12:04:30;;;;;;;3.97;3.70;;;21.40;46.70;;;;;;4985741;28;20508;-59
2022/06/16 12:07:17;;;;;;;4.13;3.83;;;21.40;46.80;;;;;;4983583;28;20482;-59
2022/06/16 12:10:27;;;;;;;3.80;3.60;;;21.40;46.80;;;;;;4982179;28;20493;-59
2022/06/16 12:13:09;;;;;;;3.70;3.40;;;21.40;46.80;;;;;;4973357;28;20479;-58
2022/06/16 12:15:49;;;;;;;3.93;3.70;;;21.40;46.80;;;;;;4981738;28;20462;-59
2022/06/16 12:18:35;;;;;;;3.90;3.60;;;21.40;46.70;;;;;;4984689;28;20500;-59
2022/06/16 12:21:12;;;;;;;3.50;3.30;;;21.40;46.80;;;;;;4983953;28;20526;-58
2022/06/16 12:24:03;;;;;;;3.80;3.60;;;21.40;46.80;;;;;;4986992;28;20470;-58
2022/06/16 12:26:34;;;;;;;4.17;3.90;;;21.40;46.80;;;;;;4984643;28;20822;-58
2022/06/16 12:29:09;;;;;;;3.80;3.60;;;21.40;46.80;;;;;;4985705;28;20455;-59
2022/06/16 12:31:44;;;;;;;4.00;3.70;;;21.40;46.80;;;;;;4982869;28;20569;-58
2022/06/16 12:34:22;;;;;;;3.80;3.60;;;21.40;46.80;;;;;;4979072;28;20858;-58
2022/06/16 12:36:53;;;;;;;3.90;3.70;;;21.40;46.80;;;;;;4984521;28;20557;-59
2022/06/16 12:39:29;;;;;;;3.23;3.03;;;21.40;46.80;;;;;;4981741;28;20459;-61
2022/06/16 12:42:01;;;;;;;3.73;3.53;;;21.40;46.80;;;;;;4980024;28;20545;-58
2022/06/16 12:44:37;;;;;;;3.67;3.47;;;21.40;46.80;;;;;;4982698;28;20470;-59
2022/06/16 12:47:13;;;;;;;4.13;3.93;;;21.40;46.80;;;;;;4982407;28;20553;-58
2022/06/16 12:49:49;;;;;;;3.20;3.00;;;21.40;46.80;;;;;;4987017;28;20446;-58
2022/06/16 12:52:23;;;;;;;3.90;3.70;;;21.40;46.80;;;;;;4981371;28;20541;-59
2022/06/16 12:55:00;;;;;;;4.20;3.90;;;21.40;46.90;;;;;;4978246;28;20964;-58
2022/06/16 12:57:32;;;;;;;3.80;3.60;;;21.40;46.90;;;;;;4981271;28;20474;-58
2022/06/16 13:00:04;;;;;;;4.10;3.90;;;21.40;46.90;;;;;;4980340;28;20505;-59
2022/06/16 13:02:34;;;;;;;4.00;3.80;;;21.40;46.90;;;;;;4983287;28;20521;-60
2022/06/16 13:05:08;;;;;;;4.30;4.00;;;21.40;46.90;;;;;;4984502;28;20497;-58
2022/06/16 13:07:35;;;;;;;3.73;3.53;;;21.40;46.90;;;;;;4981671;28;20483;-58
2022/06/16 13:10:05;;;;;;;4.10;3.87;;;21.40;46.90;;;;;;4982135;28;20450;-59
2022/06/16 13:12:33;;;;;;;3.63;3.43;;;21.50;46.90;;;;;;4978056;28;20634;-59
2022/06/16 13:15:06;;;;;;;4.43;4.20;;;21.40;46.90;;;;;;4983277;28;20443;-58
2022/06/16 13:17:37;;;;;;;4.17;3.97;;;21.40;46.90;;;;;;4981786;28;20517;-58
2022/06/16 13:20:10;;;;;;;3.83;3.63;;;21.50;46.90;;;;;;4980907;28;20526;-60
2022/06/16 13:22:41;;;;;;;3.67;3.47;;;21.40;46.80;;;;;;4983321;28;20436;-58
2022/06/16 13:25:13;;;;;;;4.03;3.83;;;21.40;46.80;;;;;;4983797;28;20569;-58
2022/06/16 13:27:42;;;;;;;3.40;3.20;;;21.40;46.80;;;;;;4985060;28;20481;-58
2022/06/16 13:30:07;;;;;;;3.90;3.70;;;21.50;46.90;;;;;;4987679;28;20450;-58
2022/06/16 13:32:38;;;;;;;4.03;3.83;;;21.50;46.90;;;;;;4980953;28;20458;-58
2022/06/16 13:35:12;;;;;;;3.60;3.40;;;21.40;47.60;;;;;;4981936;28;20256;-58
2022/06/16 13:37:44;;;;;;;4.70;4.30;;;21.50;46.80;;;;;;4986818;28;20558;-57